Weather History for Petersburg, AK

Change the Weather History Date:

Saturday, May 12, 2012

  Actual Average Record
Temperature  
Mean Temperature 42 °F -  
Max Temperature 42 °F 51 °F 63 °F (1984)
Min Temperature 41 °F 37 °F 33 °F (1986)
Degree Days  
Heating Degree Days 24    
Moisture  
Dew Point 37 °F    
Average Humidity 80    
Maximum Humidity 87    
Minimum Humidity 76    
Precipitation  
Precipitation 1.52 in - - ()
Sea Level Pressure  
Sea Level Pressure 30.09 in    
Wind  
Wind Speed 8 mph (ESE)    
Max Wind Speed 14 mph    
Max Gust Speed 24 mph    
Visibility 7 miles    
Events      
Averages and records for this station are not official NWS values.
T = Trace of Precipitation, MM = Missing Value Source: NWS Daily Summary

Daily Weather History Graph

Daily Weather History Graph

Search for Another Location

Airport:

Trip Planner

Search our weather history database for the weather conditions in past years. The results will help you decide how hot, cold, wet, or windy it might be!

Date:

Astronomy

May. 12, 2012 Rise Set
Actual Time 4:39 AM AKDT 8:58 PM AKDT
Civil Twilight 3:48 AM AKDT 9:50 PM AKDT
Nautical Twilight 2:28 AM AKDT 11:11 PM AKDT
Astronomical Twilight 1:20 AM AKDT Sun does not rise
Moon 1:49 AM AKDT (5/12) 11:57 AM AKDT (5/12)
Length of Visible Light 18h 01m
Length of Day
16h 19m
Waning Gibbous, 51% of the Moon is Illuminated
May 12
Waning Gibbous
May 12
Last Quarter
May 20
New
May 28
First Quarter
Jun 4
Full

Hourly Weather History & Observations

Time (AKDT) Temp. Windchill Dew Point Humidity Pressure Visibility Wind Dir Wind Speed Gust Speed Precip Events Conditions
12:16 AM 42.8 °F 40.1 °F 37.4 °F 81% 30.11 in 8.0 mi South 4.6 mph - N/A   Overcast
12:36 AM 42.8 °F 38.6 °F 37.4 °F 81% 30.11 in 9.0 mi East 6.9 mph - 0.01 in   Overcast
12:56 AM 42.8 °F 39.3 °F 35.6 °F 76% 30.10 in 8.0 mi ESE 5.8 mph - 0.02 in   Overcast
1:16 AM 42.8 °F 36.6 °F 37.4 °F 81% 30.10 in 10.0 mi ESE 11.5 mph 16.1 mph N/A   Overcast
1:36 AM 42.8 °F 38.6 °F 37.4 °F 81% 30.10 in 10.0 mi ESE 6.9 mph - 0.01 in   Overcast
1:56 AM 42.8 °F 37.5 °F 35.6 °F 76% 30.10 in 10.0 mi ESE 9.2 mph 24.2 mph 0.02 in   Overcast
2:16 AM 42.8 °F 36.2 °F 35.6 °F 76% 30.10 in 10.0 mi SE 12.7 mph 19.6 mph N/A   Overcast
2:36 AM 42.8 °F 36.6 °F 35.6 °F 76% 30.09 in 10.0 mi East 11.5 mph 18.4 mph 0.02 in   Overcast
2:56 AM 42.8 °F 36.2 °F 35.6 °F 76% 30.09 in 10.0 mi SE 12.7 mph 20.7 mph 0.03 in   Overcast
3:16 AM 42.8 °F 36.6 °F 35.6 °F 76% 30.09 in 10.0 mi ESE 11.5 mph - 0.02 in   Overcast
3:36 AM 42.8 °F 38.6 °F 35.6 °F 76% 30.09 in 10.0 mi East 6.9 mph 17.3 mph 0.03 in   Overcast
4:16 AM 42.8 °F 37.0 °F 37.4 °F 81% 30.08 in 10.0 mi ESE 10.4 mph 17.3 mph 0.01 in   Overcast
4:36 AM 42.8 °F 37.0 °F 37.4 °F 81% 30.07 in 10.0 mi East 10.4 mph 17.3 mph 0.03 in   Overcast
4:56 AM 42.8 °F 38.0 °F 35.6 °F 76% 30.07 in 10.0 mi ESE 8.1 mph 17.3 mph 0.05 in   Overcast
5:16 AM 42.8 °F 35.8 °F 35.6 °F 76% 30.06 in 8.0 mi ESE 13.8 mph 20.7 mph 0.03 in   Overcast
5:36 AM 41.0 °F 34.7 °F 35.6 °F 81% 30.06 in 8.0 mi ESE 10.4 mph 18.4 mph 0.07 in   Overcast
5:56 AM 41.0 °F 34.7 °F 35.6 °F 81% 30.06 in 7.0 mi SE 10.4 mph 17.3 mph 0.11 in   Overcast
6:16 AM 41.0 °F 34.3 °F 35.6 °F 81% 30.06 in 7.0 mi ESE 11.5 mph 21.9 mph 0.03 in   Overcast
6:36 AM 41.0 °F 34.3 °F 35.6 °F 81% 30.07 in 7.0 mi ESE 11.5 mph 20.7 mph 0.06 in   Overcast
6:56 AM 41.0 °F 35.2 °F 35.6 °F 81% 30.07 in 7.0 mi East 9.2 mph 23.0 mph 0.08 in   Overcast
7:16 AM 41.0 °F 34.3 °F 35.6 °F 81% 30.07 in 7.0 mi East 11.5 mph 16.1 mph 0.02 in   Overcast
7:56 AM 41.0 °F 34.3 °F 35.6 °F 81% 30.06 in 5.0 mi ESE 11.5 mph 17.3 mph 0.06 in   Overcast
8:16 AM 41.0 °F 35.2 °F 37.4 °F 87% 30.06 in 5.0 mi ESE 9.2 mph - 0.02 in   Overcast
8:36 AM 41.0 °F 33.9 °F 37.4 °F 87% 30.06 in 5.0 mi East 12.7 mph 23.0 mph 0.03 in   Overcast
8:56 AM 42.8 °F 36.2 °F 37.4 °F 81% 30.06 in 7.0 mi ESE 12.7 mph 21.9 mph 0.05 in   Overcast
9:16 AM 41.0 °F 34.3 °F 35.6 °F 81% 30.07 in 7.0 mi ESE 11.5 mph 17.3 mph 0.02 in   Overcast
9:36 AM 41.0 °F 33.9 °F 35.6 °F 81% 30.07 in 7.0 mi East 12.7 mph 20.7 mph 0.05 in   Overcast
9:56 AM 41.0 °F 34.7 °F 35.6 °F 81% 30.07 in 7.0 mi ESE 10.4 mph 20.7 mph 0.08 in   Overcast
10:16 AM 41.0 °F 35.8 °F 37.4 °F 87% 30.07 in 7.0 mi East 8.1 mph 16.1 mph 0.05 in   Overcast
10:36 AM 42.8 °F 39.3 °F 37.4 °F 81% 30.08 in 7.0 mi East 5.8 mph - 0.08 in   Overcast
10:56 AM 42.8 °F 38.0 °F 35.6 °F 76% 30.08 in 7.0 mi ESE 8.1 mph 17.3 mph 0.13 in   Overcast
11:16 AM 42.8 °F 37.5 °F 35.6 °F 76% 30.09 in 7.0 mi ESE 9.2 mph 17.3 mph 0.06 in   Overcast
11:36 AM 42.8 °F 38.6 °F 35.6 °F 76% 30.09 in 7.0 mi ESE 6.9 mph - 0.11 in   Overcast
11:56 AM 42.8 °F 38.0 °F 37.4 °F 81% 30.09 in 7.0 mi ESE 8.1 mph - 0.15 in   Overcast
12:16 PM 42.8 °F 37.5 °F 37.4 °F 81% 30.09 in 7.0 mi East 9.2 mph 17.3 mph 0.05 in   Overcast
12:36 PM 42.8 °F 39.3 °F 37.4 °F 81% 30.09 in 7.0 mi East 5.8 mph - 0.11 in   Overcast
12:56 PM 42.8 °F 37.5 °F 37.4 °F 81% 30.10 in 4.0 mi ESE 9.2 mph - 0.16 in   Overcast
1:16 PM 42.8 °F 38.6 °F 37.4 °F 81% 30.10 in 4.0 mi East 6.9 mph 18.4 mph 0.05 in   Overcast
1:36 PM 42.8 °F 40.1 °F 37.4 °F 81% 30.10 in 4.0 mi East 4.6 mph - 0.09 in   Overcast
1:56 PM 42.8 °F 40.1 °F 37.4 °F 81% 30.11 in 4.0 mi ENE 4.6 mph - 0.15 in   Overcast
2:16 PM 42.8 °F 38.6 °F 37.4 °F 81% 30.11 in 4.0 mi ESE 6.9 mph - 0.04 in   Overcast
2:36 PM 42.8 °F 38.6 °F 35.6 °F 76% 30.11 in 4.0 mi ENE 6.9 mph 16.1 mph 0.08 in   Overcast
2:56 PM 42.8 °F 38.6 °F 37.4 °F 81% 30.11 in 4.0 mi East 6.9 mph - 0.10 in   Overcast
3:16 PM 42.8 °F 38.6 °F 37.4 °F 81% 30.11 in 4.0 mi ENE 6.9 mph - 0.02 in   Overcast
3:36 PM 42.8 °F 37.5 °F 37.4 °F 81% 30.11 in 4.0 mi East 9.2 mph - 0.03 in   Overcast
3:56 PM 42.8 °F 37.0 °F 37.4 °F 81% 30.11 in 5.0 mi East 10.4 mph 20.7 mph 0.06 in   Overcast
4:16 PM 42.8 °F 38.0 °F 37.4 °F 81% 30.11 in 5.0 mi East 8.1 mph - 0.03 in   Overcast
4:36 PM 42.8 °F 38.6 °F 37.4 °F 81% 30.12 in 5.0 mi ESE 6.9 mph - 0.05 in   Overcast
4:56 PM 42.8 °F 40.1 °F 37.4 °F 81% 30.12 in 5.0 mi East 4.6 mph - 0.07 in   Overcast
5:16 PM 42.8 °F 38.6 °F 37.4 °F 81% 30.12 in 5.0 mi SSE 6.9 mph 19.6 mph 0.01 in   Overcast
5:36 PM 42.8 °F 38.6 °F 37.4 °F 81% 30.12 in 5.0 mi East 6.9 mph 17.3 mph 0.04 in   Overcast
5:56 PM 42.8 °F 38.0 °F 37.4 °F 81% 30.12 in 5.0 mi East 8.1 mph - 0.05 in   Overcast
6:36 PM 42.8 °F 38.6 °F 37.4 °F 81% 30.12 in 5.0 mi East 6.9 mph - 0.02 in   Overcast
6:56 PM 42.8 °F 37.5 °F 37.4 °F 81% 30.11 in 10.0 mi East 9.2 mph - 0.03 in   Overcast
7:16 PM 42.8 °F 36.6 °F 37.4 °F 81% 30.11 in 10.0 mi ESE 11.5 mph 18.4 mph N/A   Overcast
7:36 PM 42.8 °F 36.2 °F 37.4 °F 81% 30.11 in 10.0 mi ESE 12.7 mph 17.3 mph N/A   Overcast
8:16 PM 42.8 °F 39.3 °F 37.4 °F 81% 30.12 in 10.0 mi SSE 5.8 mph 16.1 mph N/A   Overcast
8:56 PM 42.8 °F 37.0 °F 37.4 °F 81% 30.12 in 10.0 mi SE 10.4 mph - N/A   Overcast
9:36 PM 42.8 °F - 37.4 °F 81% 30.12 in 10.0 mi Calm Calm - 0.02 in   Overcast
9:56 PM 42.8 °F 41.1 °F 35.6 °F 76% 30.12 in 10.0 mi East 3.5 mph - 0.03 in   Mostly Cloudy
10:56 PM 42.8 °F 41.1 °F 37.4 °F 81% 30.11 in 10.0 mi North 3.5 mph - 0.01 in   Overcast
11:56 PM 42.8 °F 38.6 °F 37.4 °F 81% 30.11 in 7.0 mi NW 6.9 mph - 0.05 in   Overcast